Flight Number: EUR2234 Duration: 1:45
Departure: Skopje Airport (LWSK) at 21:20 Distance: 566 Nm
Arrival: Munich Int'l (EDDM) at 23:05 Equipment: B737

Weather Information
Skopje-Petrovec, Macedonia, The Republic of (LWSK) 41-58N 021-39E 239M Oct 19, 2018 - 02:00 PM EDT / 2018.10.19 1800 UTC
Wind: Calm:0
Visibility: greater than 7 mile(s):0 Temperature: 62 F (17 C) Dew Point: 48 F (9 C) Relative Humidity: 59% Pressure (altimeter): 30.03 in. Hg (1017 hPa)
ob: LWSK 191800Z 00000KT CAVOK 17/09 Q1017 NOSIG cycle: 18
Sunrise: 04:54 Sunset: 15:42 (UTC)

Munchen, Germany (EDDM) 48-21N 011-47E Oct 19, 2018 - 01:50 PM EDT / 2018.10.19 1750 UTC
Wind: from the N (360 degrees) at 2 MPH (2 KT):0
Visibility: 5 mile(s):0 Temperature: 48 F (9 C) Dew Point: 46 F (8 C) Relative Humidity: 93% Pressure (altimeter): 30.21 in. Hg (1023 hPa)
ob: EDDM 191750Z 36002KT 9000 NSC 09/08 Q1023 NOSIG cycle: 18
Sunrise: 05:42 Sunset: 16:12 (UTC)

TAF:2018/10/19 18:44 TAF EDDM 191700Z 1918/2024 VRB02KT 8000 NSC BECMG 1921/1924 2000 BCFG PROB30 TEMPO 2001/2009 0700 FG BECMG 2009/2011 7000 BKN013 BECMG 2011/2013 34006KT SCT013 BECMG 2016/2018 VRB03KT PROB30 TEMPO 2022/2024 3000 BCFG

Previous Pireps for this route
Date Aircraft Flight time Fuel used Landing rate On time
2013-07-24B73701.5211200-241Yes
2014-01-03B73702.1319437-490No
2014-11-05B73701.4310476-121Yes
(pireps marked green are flown by you)

Route map